createdAt,value
2023-02-06T00:04:30.504Z,101200.28
2023-02-06T00:09:32.667Z,101185.44
2023-02-06T00:14:34.840Z,101212.91
2023-02-06T00:19:38.349Z,101180.84
2023-02-06T00:24:41.336Z,101197.13
2023-02-06T00:29:43.432Z,101230.75
2023-02-06T00:34:45.607Z,101187.84
2023-02-06T00:39:47.732Z,101223.44
2023-02-06T00:44:49.823Z,101202.09
2023-02-06T00:49:52.000Z,101210.28
2023-02-06T00:54:54.122Z,101203.19
2023-02-06T00:59:56.225Z,101240.91
2023-02-06T01:04:58.322Z,101216.94
2023-02-06T01:10:00.463Z,101210.28
2023-02-06T01:15:02.979Z,101234.00
2023-02-06T01:20:06.716Z,101228.50
2023-02-06T01:25:09.045Z,101210.03
2023-02-06T01:30:12.137Z,101222.72
2023-02-06T01:35:14.326Z,101205.81
2023-02-06T01:40:17.382Z,101218.34
2023-02-06T01:45:22.147Z,101225.13
2023-02-06T01:50:24.597Z,101208.19
2023-02-06T01:55:26.871Z,101230.41
2023-02-06T02:00:29.047Z,101216.25
2023-02-06T02:05:33.569Z,101197.34
2023-02-06T02:10:36.188Z,101206.66
2023-02-06T02:16:03.167Z,101225.09
2023-02-06T02:21:26.288Z,101223.19
2023-02-06T02:26:49.977Z,101231.13
2023-02-06T02:32:09.974Z,101240.88
2023-02-06T02:37:26.243Z,101207.25
2023-02-06T02:42:57.190Z,101252.72
2023-02-06T02:48:08.654Z,101250.00
2023-02-06T02:53:11.742Z,101225.50
2023-02-06T02:58:19.818Z,101203.94
2023-02-06T03:03:25.505Z,101231.47
2023-02-06T03:08:46.482Z,101251.28
2023-02-06T03:13:55.975Z,101253.78
2023-02-06T03:19:14.193Z,101255.91
2023-02-06T03:24:21.724Z,101273.00
2023-02-06T03:29:25.379Z,101263.22
2023-02-06T03:35:02.314Z,101269.69
2023-02-06T03:40:06.552Z,101273.47
2023-02-06T03:45:11.395Z,101301.03
2023-02-06T03:50:15.508Z,101249.16
2023-02-06T03:55:22.754Z,101255.44
2023-02-06T04:00:26.337Z,101271.53
2023-02-06T04:05:28.978Z,101248.00
2023-02-06T04:10:31.341Z,101272.91
2023-02-06T04:15:33.674Z,101258.41
2023-02-06T04:20:41.145Z,101287.38
2023-02-06T04:25:43.220Z,101310.09
2023-02-06T04:30:45.387Z,101267.53
2023-02-06T04:35:48.935Z,101301.91
2023-02-06T04:40:51.049Z,101292.50
2023-02-06T04:45:53.156Z,101322.38
2023-02-06T04:50:55.234Z,101329.78
2023-02-06T04:56:08.918Z,101341.22
2023-02-06T05:01:11.169Z,101309.81
2023-02-06T05:06:14.008Z,101353.25
2023-02-06T05:11:16.171Z,101343.75
2023-02-06T05:16:19.232Z,101338.75
2023-02-06T05:21:21.893Z,101346.69
2023-02-06T05:26:24.226Z,101366.09
2023-02-06T05:31:26.543Z,101344.84
2023-02-06T05:36:29.598Z,101365.78
2023-02-06T05:41:31.911Z,101356.72
2023-02-06T05:46:34.003Z,101375.44
2023-02-06T05:51:36.277Z,101374.84
2023-02-06T05:56:38.471Z,101352.19
2023-02-06T06:01:40.597Z,101385.88
2023-02-06T06:06:42.676Z,101377.13
2023-02-06T06:11:44.808Z,101358.59
2023-02-06T06:16:46.950Z,101416.91
2023-02-06T06:21:49.148Z,101369.13
2023-02-06T06:26:51.397Z,101385.53
2023-02-06T06:31:54.139Z,101416.91
2023-02-06T06:36:56.407Z,101429.56
2023-02-06T06:41:58.555Z,101393.53
2023-02-06T06:47:00.645Z,101377.38
2023-02-06T06:52:03.640Z,101426.78
2023-02-06T06:57:06.626Z,101412.75
2023-02-06T07:02:10.332Z,101444.78
2023-02-06T07:07:12.430Z,101440.59
2023-02-06T07:12:14.597Z,101421.34
2023-02-06T07:17:16.718Z,101447.13
2023-02-06T07:22:21.868Z,101404.63
2023-02-06T07:27:24.072Z,101447.16
2023-02-06T07:32:27.361Z,101418.91
2023-02-06T07:37:29.498Z,101452.00
2023-02-06T07:42:33.746Z,101470.47
2023-02-06T07:47:35.837Z,101460.09
2023-02-06T07:52:38.153Z,101462.09
2023-02-06T07:57:40.237Z,101493.56
2023-02-06T08:02:42.760Z,101474.97
2023-02-06T08:07:45.000Z,101460.66
2023-02-06T08:12:47.361Z,101449.97
2023-02-06T08:17:49.646Z,101471.19
2023-02-06T08:22:51.891Z,101476.56
2023-02-06T08:27:57.337Z,101470.53
2023-02-06T08:32:59.643Z,101440.88
2023-02-06T08:38:01.928Z,101497.41
2023-02-06T08:43:04.199Z,101464.50
2023-02-06T08:48:06.627Z,101401.44
2023-02-06T08:53:08.936Z,101385.88
2023-02-06T08:58:11.147Z,101416.41
2023-02-06T09:03:13.318Z,101456.03
2023-02-06T09:08:15.814Z,101500.03
2023-02-06T09:13:18.018Z,101444.56
2023-02-06T09:18:20.653Z,101438.91
2023-02-06T09:23:22.836Z,101457.38
2023-02-06T09:28:25.071Z,101479.41
2023-02-06T09:33:27.677Z,101498.59
2023-02-06T09:38:29.941Z,101468.75
2023-02-06T09:43:34.026Z,101477.66
2023-02-06T09:48:39.975Z,101485.44
2023-02-06T09:53:48.141Z,101487.22
2023-02-06T09:59:06.157Z,101457.16
2023-02-06T10:04:33.820Z,101462.63
2023-02-06T10:09:52.276Z,101458.69
2023-02-06T10:15:07.737Z,101433.47
2023-02-06T10:20:22.936Z,101423.56
2023-02-06T10:25:37.416Z,101406.53
2023-02-06T10:31:03.840Z,101436.78
2023-02-06T10:36:24.501Z,101428.06
2023-02-06T10:42:00.965Z,101403.75
2023-02-06T10:47:11.450Z,101389.19
2023-02-06T10:52:13.454Z,101414.63
2023-02-06T10:57:20.733Z,101407.72
2023-02-06T11:02:22.896Z,101407.47
2023-02-06T11:07:38.607Z,101406.53
2023-02-06T11:13:11.421Z,101382.41
2023-02-06T11:18:19.613Z,101359.28
2023-02-06T11:23:27.541Z,101382.19
2023-02-06T11:28:30.877Z,101358.88
2023-02-06T11:33:42.174Z,101386.31
2023-02-06T11:38:54.754Z,101380.94
2023-02-06T11:44:02.951Z,101371.97
2023-02-06T11:49:20.258Z,101378.03
2023-02-06T11:54:29.298Z,101345.97
2023-02-06T11:59:34.889Z,101351.31
2023-02-06T12:04:41.715Z,101349.94
2023-02-06T12:09:44.033Z,101335.41
2023-02-06T12:14:49.682Z,101359.56
2023-02-06T12:20:03.247Z,101338.72
2023-02-06T12:25:05.878Z,101350.38
2023-02-06T12:30:27.866Z,101357.34
2023-02-06T12:35:44.161Z,101324.09
2023-02-06T12:40:49.337Z,101352.44
2023-02-06T12:46:02.862Z,101351.88
2023-02-06T12:51:29.117Z,101358.84
2023-02-06T12:56:49.202Z,101359.81
2023-02-06T13:01:56.818Z,101365.72
2023-02-06T13:07:06.826Z,101347.63
2023-02-06T13:12:16.301Z,101365.47
2023-02-06T13:17:27.206Z,101378.03
2023-02-06T13:22:40.312Z,101349.06
2023-02-06T13:27:42.588Z,101366.03
2023-02-06T13:32:48.678Z,101385.00
2023-02-06T13:37:52.102Z,101384.28
2023-02-06T13:43:14.088Z,101388.75
2023-02-06T13:48:47.833Z,101395.75
2023-02-06T13:54:01.864Z,101399.56
2023-02-06T13:59:24.243Z,101363.03
2023-02-06T14:04:30.320Z,101409.19
2023-02-06T14:09:50.320Z,101414.56
2023-02-06T14:15:18.945Z,101409.69
2023-02-06T14:20:47.712Z,101414.50
2023-02-06T14:26:01.179Z,101421.03
2023-02-06T14:31:13.577Z,101431.31
2023-02-06T14:36:41.322Z,101433.44
2023-02-06T14:41:43.692Z,101406.16
2023-02-06T14:46:46.385Z,101445.75
2023-02-06T14:51:51.662Z,101452.50
2023-02-06T14:56:59.288Z,101458.19
2023-02-06T15:02:14.095Z,101466.72
2023-02-06T15:07:25.474Z,101474.59
2023-02-06T15:12:29.536Z,101451.66
2023-02-06T15:17:32.597Z,101483.78
2023-02-06T15:22:36.157Z,101484.09
2023-02-06T15:27:39.196Z,101463.06
2023-02-06T15:32:41.531Z,101517.66
2023-02-06T15:37:43.838Z,101480.72
2023-02-06T15:42:50.545Z,101504.19
2023-02-06T15:47:54.951Z,101493.88
2023-02-06T15:52:57.280Z,101513.13
2023-02-06T15:58:02.394Z,101531.91
2023-02-06T16:03:08.710Z,101541.56
2023-02-06T16:08:23.519Z,101537.22
2023-02-06T16:13:28.660Z,101555.41
2023-02-06T16:18:33.975Z,101543.16
2023-02-06T16:23:51.704Z,101581.28
2023-02-06T16:29:27.988Z,101565.25
2023-02-06T16:34:40.965Z,101589.78
2023-02-06T16:39:44.448Z,101567.75
2023-02-06T16:44:50.088Z,101589.72
2023-02-06T16:49:52.501Z,101579.25
2023-02-06T16:55:02.085Z,101590.66
2023-02-06T17:00:25.685Z,101599.63
2023-02-06T17:05:29.384Z,101604.09
2023-02-06T17:10:31.588Z,101623.31
2023-02-06T17:15:33.935Z,101639.16
2023-02-06T17:20:39.486Z,101645.19
2023-02-06T17:25:44.300Z,101639.75
2023-02-06T17:30:46.913Z,101633.59
2023-02-06T17:35:49.506Z,101648.00
2023-02-06T17:40:51.843Z,101643.53
2023-02-06T17:45:53.963Z,101653.06
2023-02-06T17:50:56.075Z,101666.47
2023-02-06T17:55:58.218Z,101679.78
2023-02-06T18:01:00.467Z,101660.53
2023-02-06T18:06:03.280Z,101698.63
2023-02-06T18:11:13.661Z,101698.41
2023-02-06T18:16:21.535Z,101701.06
2023-02-06T18:21:24.963Z,101701.56
2023-02-06T18:26:28.011Z,101696.06
2023-02-06T18:31:35.521Z,101700.31
2023-02-06T18:36:38.462Z,101698.25
2023-02-06T18:41:58.821Z,101720.28
2023-02-06T18:47:00.914Z,101688.41
2023-02-06T18:52:04.001Z,101721.00
2023-02-06T18:57:06.703Z,101690.94
2023-02-06T19:02:10.685Z,101693.00
2023-02-06T19:07:34.508Z,101735.84
2023-02-06T19:12:39.204Z,101735.16
2023-02-06T19:17:42.163Z,101764.88
2023-02-06T19:22:44.344Z,101743.16
2023-02-06T19:27:46.554Z,101759.16
2023-02-06T19:32:51.763Z,101751.31
2023-02-06T19:37:53.832Z,101757.72
2023-02-06T19:42:55.998Z,101750.00
2023-02-06T19:47:58.434Z,101781.84
2023-02-06T19:53:00.827Z,101747.56
2023-02-06T19:58:03.275Z,101771.09
2023-02-06T20:03:05.813Z,101739.28
2023-02-06T20:08:08.004Z,101759.91
2023-02-06T20:13:10.486Z,101798.53
2023-02-06T20:18:12.987Z,101781.56
2023-02-06T20:23:15.066Z,101791.94
2023-02-06T20:28:17.216Z,101794.41
2023-02-06T20:33:19.415Z,101750.47
2023-02-06T20:38:21.570Z,101759.59
2023-02-06T20:43:23.716Z,101777.50
2023-02-06T20:48:26.114Z,101780.59
2023-02-06T20:53:28.343Z,101791.75
2023-02-06T20:58:30.673Z,101794.81
2023-02-06T21:03:32.827Z,101784.00
2023-02-06T21:08:35.146Z,101823.38
2023-02-06T21:13:39.617Z,101814.69
2023-02-06T21:18:42.929Z,101803.72
2023-02-06T21:23:46.629Z,101786.66
2023-02-06T21:28:48.800Z,101762.13
2023-02-06T21:33:52.284Z,101788.97
2023-02-06T21:38:54.465Z,101793.84
2023-02-06T21:43:56.742Z,101816.88
2023-02-06T21:48:58.910Z,101814.00
2023-02-06T21:54:01.150Z,101816.22
2023-02-06T21:59:03.303Z,101784.84
2023-02-06T22:04:05.624Z,101807.34
2023-02-06T22:09:10.043Z,101820.16
2023-02-06T22:14:16.669Z,101807.31
2023-02-06T22:19:18.931Z,101814.28
2023-02-06T22:24:21.707Z,101841.06
2023-02-06T22:29:24.137Z,101815.69
2023-02-06T22:34:26.267Z,101814.00
2023-02-06T22:39:28.410Z,101852.13
2023-02-06T22:44:30.478Z,101830.09
2023-02-06T22:49:32.584Z,101789.56
2023-02-06T22:54:34.732Z,101836.84
2023-02-06T22:59:36.812Z,101819.25
2023-02-06T23:04:40.995Z,101831.81
2023-02-06T23:09:43.209Z,101847.72
2023-02-06T23:14:45.453Z,101844.06
2023-02-06T23:19:47.587Z,101832.66
2023-02-06T23:24:51.978Z,101816.69
2023-02-06T23:29:54.135Z,101811.47
2023-02-06T23:34:56.786Z,101840.91
2023-02-06T23:39:59.174Z,101852.19
2023-02-06T23:45:02.025Z,101858.66
2023-02-06T23:50:05.715Z,101866.66
2023-02-06T23:55:08.074Z,101833.78
